sensor_id;sensor_type;location;lat;lon;timestamp;temperature;humidity
63899;HTU21D;50070;-32.946;-60.652;2023-03-23T00:02:16;22.69;84.36
63899;HTU21D;50070;-32.946;-60.652;2023-03-23T00:04:43;22.71;84.45
63899;HTU21D;50070;-32.946;-60.652;2023-03-23T00:07:10;22.76;84.58
63899;HTU21D;50070;-32.946;-60.652;2023-03-23T00:09:38;22.77;84.10
63899;HTU21D;50070;-32.946;-60.652;2023-03-23T00:12:07;22.71;84.25
63899;HTU21D;50070;-32.946;-60.652;2023-03-23T00:14:34;22.79;84.51
63899;HTU21D;50070;-32.946;-60.652;2023-03-23T00:17:10;22.85;83.97
63899;HTU21D;50070;-32.946;-60.652;2023-03-23T00:19:41;22.82;84.60
63899;HTU21D;50070;-32.946;-60.652;2023-03-23T00:22:15;22.88;84.19
63899;HTU21D;50070;-32.946;-60.652;2023-03-23T00:24:43;22.78;84.56
63899;HTU21D;50070;-32.946;-60.652;2023-03-23T00:27:10;22.61;85.33
63899;HTU21D;50070;-32.946;-60.652;2023-03-23T00:29:40;22.50;85.79
63899;HTU21D;50070;-32.946;-60.652;2023-03-23T00:32:08;22.62;85.73
63899;HTU21D;50070;-32.946;-60.652;2023-03-23T00:34:43;22.64;85.80
63899;HTU21D;50070;-32.946;-60.652;2023-03-23T00:37:12;22.54;86.40
63899;HTU21D;50070;-32.946;-60.652;2023-03-23T00:39:39;22.80;85.18
63899;HTU21D;50070;-32.946;-60.652;2023-03-23T00:42:13;22.66;85.84
63899;HTU21D;50070;-32.946;-60.652;2023-03-23T00:44:42;22.55;86.10
63899;HTU21D;50070;-32.946;-60.652;2023-03-23T00:47:11;22.71;85.37
63899;HTU21D;50070;-32.946;-60.652;2023-03-23T00:49:39;22.55;86.15
63899;HTU21D;50070;-32.946;-60.652;2023-03-23T00:52:07;22.82;84.86
63899;HTU21D;50070;-32.946;-60.652;2023-03-23T00:54:34;22.86;84.69
63899;HTU21D;50070;-32.946;-60.652;2023-03-23T00:57:08;22.77;85.06
63899;HTU21D;50070;-32.946;-60.652;2023-03-23T00:59:36;22.67;85.33
63899;HTU21D;50070;-32.946;-60.652;2023-03-23T01:02:15;22.62;85.90
63899;HTU21D;50070;-32.946;-60.652;2023-03-23T01:05:05;22.37;86.53
63899;HTU21D;50070;-32.946;-60.652;2023-03-23T01:07:38;22.44;86.23
63899;HTU21D;50070;-32.946;-60.652;2023-03-23T01:10:06;22.58;85.96
63899;HTU21D;50070;-32.946;-60.652;2023-03-23T01:12:42;22.70;85.30
63899;HTU21D;50070;-32.946;-60.652;2023-03-23T01:15:17;22.83;84.33
63899;HTU21D;50070;-32.946;-60.652;2023-03-23T01:17:45;22.81;84.09
63899;HTU21D;50070;-32.946;-60.652;2023-03-23T01:20:13;22.67;84.91
63899;HTU21D;50070;-32.946;-60.652;2023-03-23T01:22:44;22.79;83.76
63899;HTU21D;50070;-32.946;-60.652;2023-03-23T01:25:12;22.81;84.00
63899;HTU21D;50070;-32.946;-60.652;2023-03-23T01:27:40;22.47;85.81
63899;HTU21D;50070;-32.946;-60.652;2023-03-23T01:30:09;22.62;84.91
63899;HTU21D;50070;-32.946;-60.652;2023-03-23T01:32:37;22.71;84.16
63899;HTU21D;50070;-32.946;-60.652;2023-03-23T01:35:04;22.76;83.46
63899;HTU21D;50070;-32.946;-60.652;2023-03-23T01:37:34;22.70;83.69
63899;HTU21D;50070;-32.946;-60.652;2023-03-23T01:40:07;22.62;84.19
63899;HTU21D;50070;-32.946;-60.652;2023-03-23T01:42:37;22.72;83.52
63899;HTU21D;50070;-32.946;-60.652;2023-03-23T01:47:47;22.57;84.34
63899;HTU21D;50070;-32.946;-60.652;2023-03-23T01:50:18;22.50;85.22
63899;HTU21D;50070;-32.946;-60.652;2023-03-23T01:52:46;22.56;85.08
63899;HTU21D;50070;-32.946;-60.652;2023-03-23T01:55:18;22.43;85.70
63899;HTU21D;50070;-32.946;-60.652;2023-03-23T01:57:45;22.50;85.67
63899;HTU21D;50070;-32.946;-60.652;2023-03-23T02:00:12;22.46;86.11
63899;HTU21D;50070;-32.946;-60.652;2023-03-23T02:02:48;22.61;85.34
63899;HTU21D;50070;-32.946;-60.652;2023-03-23T02:05:32;22.55;85.51
63899;HTU21D;50070;-32.946;-60.652;2023-03-23T02:08:04;22.51;85.51
63899;HTU21D;50070;-32.946;-60.652;2023-03-23T02:10:36;22.39;86.14
63899;HTU21D;50070;-32.946;-60.652;2023-03-23T02:13:06;22.57;84.92
63899;HTU21D;50070;-32.946;-60.652;2023-03-23T02:34:53;22.17;88.00
63899;HTU21D;50070;-32.946;-60.652;2023-03-23T02:37:36;22.18;88.01
63899;HTU21D;50070;-32.946;-60.652;2023-03-23T02:40:09;22.24;87.83
63899;HTU21D;50070;-32.946;-60.652;2023-03-23T02:42:43;22.37;87.26
63899;HTU21D;50070;-32.946;-60.652;2023-03-23T02:45:11;22.46;86.61
63899;HTU21D;50070;-32.946;-60.652;2023-03-23T02:47:43;22.44;87.01
63899;HTU21D;50070;-32.946;-60.652;2023-03-23T02:50:14;22.50;87.28
63899;HTU21D;50070;-32.946;-60.652;2023-03-23T02:52:43;22.36;88.06
63899;HTU21D;50070;-32.946;-60.652;2023-03-23T02:55:11;22.26;88.76
63899;HTU21D;50070;-32.946;-60.652;2023-03-23T02:57:40;22.40;88.41
63899;HTU21D;50070;-32.946;-60.652;2023-03-23T03:00:10;22.48;87.73
63899;HTU21D;50070;-32.946;-60.652;2023-03-23T03:02:46;22.53;87.33
63899;HTU21D;50070;-32.946;-60.652;2023-03-23T03:05:29;22.51;87.99
63899;HTU21D;50070;-32.946;-60.652;2023-03-23T03:13:14;22.37;88.12
63899;HTU21D;50070;-32.946;-60.652;2023-03-23T03:15:44;22.24;88.06
63899;HTU21D;50070;-32.946;-60.652;2023-03-23T03:18:32;22.25;88.43
63899;HTU21D;50070;-32.946;-60.652;2023-03-23T03:21:04;22.25;88.61
63899;HTU21D;50070;-32.946;-60.652;2023-03-23T03:23:34;22.22;89.24
63899;HTU21D;50070;-32.946;-60.652;2023-03-23T03:26:03;22.31;88.80
63899;HTU21D;50070;-32.946;-60.652;2023-03-23T03:28:32;22.44;88.46
63899;HTU21D;50070;-32.946;-60.652;2023-03-23T03:31:02;22.14;90.05
63899;HTU21D;50070;-32.946;-60.652;2023-03-23T03:33:31;22.20;90.84
63899;HTU21D;50070;-32.946;-60.652;2023-03-23T03:36:03;22.35;89.56
63899;HTU21D;50070;-32.946;-60.652;2023-03-23T03:38:30;22.37;88.61
63899;HTU21D;50070;-32.946;-60.652;2023-03-23T03:41:07;22.23;89.29
63899;HTU21D;50070;-32.946;-60.652;2023-03-23T03:43:34;22.13;89.25
63899;HTU21D;50070;-32.946;-60.652;2023-03-23T03:46:01;22.02;89.43
63899;HTU21D;50070;-32.946;-60.652;2023-03-23T03:48:28;22.03;89.68
63899;HTU21D;50070;-32.946;-60.652;2023-03-23T03:50:55;22.12;89.52
63899;HTU21D;50070;-32.946;-60.652;2023-03-23T03:53:29;22.17;89.05
63899;HTU21D;50070;-32.946;-60.652;2023-03-23T03:55:57;22.11;89.38
63899;HTU21D;50070;-32.946;-60.652;2023-03-23T03:58:29;22.08;89.28
63899;HTU21D;50070;-32.946;-60.652;2023-03-23T04:01:02;22.09;89.57
63899;HTU21D;50070;-32.946;-60.652;2023-03-23T04:03:30;22.06;89.46
63899;HTU21D;50070;-32.946;-60.652;2023-03-23T04:05:57;22.20;88.95
63899;HTU21D;50070;-32.946;-60.652;2023-03-23T04:08:25;22.04;89.44
63899;HTU21D;50070;-32.946;-60.652;2023-03-23T04:10:53;22.17;89.01
63899;HTU21D;50070;-32.946;-60.652;2023-03-23T04:13:20;22.05;89.10
63899;HTU21D;50070;-32.946;-60.652;2023-03-23T04:15:48;21.92;89.57
63899;HTU21D;50070;-32.946;-60.652;2023-03-23T04:18:15;22.07;89.15
63899;HTU21D;50070;-32.946;-60.652;2023-03-23T04:20:45;22.03;89.12
63899;HTU21D;50070;-32.946;-60.652;2023-03-23T04:23:18;22.08;88.73
63899;HTU21D;50070;-32.946;-60.652;2023-03-23T04:25:52;22.06;89.10
63899;HTU21D;50070;-32.946;-60.652;2023-03-23T04:28:23;22.07;88.96
63899;HTU21D;50070;-32.946;-60.652;2023-03-23T04:30:51;22.06;89.25
63899;HTU21D;50070;-32.946;-60.652;2023-03-23T04:33:25;21.97;89.66
63899;HTU21D;50070;-32.946;-60.652;2023-03-23T04:35:53;22.06;89.14
63899;HTU21D;50070;-32.946;-60.652;2023-03-23T04:38:21;22.13;88.88
63899;HTU21D;50070;-32.946;-60.652;2023-03-23T04:40:51;22.21;88.70
63899;HTU21D;50070;-32.946;-60.652;2023-03-23T04:43:20;22.16;88.52
63899;HTU21D;50070;-32.946;-60.652;2023-03-23T04:45:54;22.07;89.10
63899;HTU21D;50070;-32.946;-60.652;2023-03-23T04:48:25;22.31;88.14
63899;HTU21D;50070;-32.946;-60.652;2023-03-23T04:50:53;22.13;88.92
63899;HTU21D;50070;-32.946;-60.652;2023-03-23T04:53:20;22.23;88.43
63899;HTU21D;50070;-32.946;-60.652;2023-03-23T04:55:48;22.22;88.47
63899;HTU21D;50070;-32.946;-60.652;2023-03-23T04:58:15;22.32;88.21
63899;HTU21D;50070;-32.946;-60.652;2023-03-23T05:00:43;22.27;88.66
63899;HTU21D;50070;-32.946;-60.652;2023-03-23T05:03:19;22.21;88.63
63899;HTU21D;50070;-32.946;-60.652;2023-03-23T05:05:46;22.12;89.04
63899;HTU21D;50070;-32.946;-60.652;2023-03-23T05:08:24;22.33;88.08
63899;HTU21D;50070;-32.946;-60.652;2023-03-23T05:10:52;21.95;89.50
63899;HTU21D;50070;-32.946;-60.652;2023-03-23T05:13:21;22.03;89.05
63899;HTU21D;50070;-32.946;-60.652;2023-03-23T05:15:48;22.16;88.64
63899;HTU21D;50070;-32.946;-60.652;2023-03-23T05:18:16;22.19;88.20
63899;HTU21D;50070;-32.946;-60.652;2023-03-23T05:20:45;22.24;88.06
63899;HTU21D;50070;-32.946;-60.652;2023-03-23T05:23:12;22.33;87.42
63899;HTU21D;50070;-32.946;-60.652;2023-03-23T05:25:40;22.21;87.59
63899;HTU21D;50070;-32.946;-60.652;2023-03-23T05:28:09;22.40;86.89
63899;HTU21D;50070;-32.946;-60.652;2023-03-23T05:30:38;22.21;87.64
63899;HTU21D;50070;-32.946;-60.652;2023-03-23T05:33:05;22.26;88.20
63899;HTU21D;50070;-32.946;-60.652;2023-03-23T05:35:32;22.44;87.00
63899;HTU21D;50070;-32.946;-60.652;2023-03-23T05:37:59;22.27;87.27
63899;HTU21D;50070;-32.946;-60.652;2023-03-23T05:40:28;22.20;86.27
63899;HTU21D;50070;-32.946;-60.652;2023-03-23T05:42:54;22.25;86.76
63899;HTU21D;50070;-32.946;-60.652;2023-03-23T05:45:23;22.07;87.87
63899;HTU21D;50070;-32.946;-60.652;2023-03-23T05:47:50;22.23;87.97
63899;HTU21D;50070;-32.946;-60.652;2023-03-23T05:50:17;22.41;87.10
63899;HTU21D;50070;-32.946;-60.652;2023-03-23T05:52:45;22.13;88.18
63899;HTU21D;50070;-32.946;-60.652;2023-03-23T05:55:11;22.16;88.35
63899;HTU21D;50070;-32.946;-60.652;2023-03-23T05:57:39;22.21;87.57
63899;HTU21D;50070;-32.946;-60.652;2023-03-23T06:00:06;22.16;87.83
63899;HTU21D;50070;-32.946;-60.652;2023-03-23T06:02:38;22.42;86.26
63899;HTU21D;50070;-32.946;-60.652;2023-03-23T06:05:05;22.41;86.19
63899;HTU21D;50070;-32.946;-60.652;2023-03-23T06:07:32;22.24;87.09
63899;HTU21D;50070;-32.946;-60.652;2023-03-23T06:09:59;22.37;86.50
63899;HTU21D;50070;-32.946;-60.652;2023-03-23T06:12:27;22.44;86.42
63899;HTU21D;50070;-32.946;-60.652;2023-03-23T06:14:53;22.28;87.16
63899;HTU21D;50070;-32.946;-60.652;2023-03-23T06:17:20;22.40;86.48
63899;HTU21D;50070;-32.946;-60.652;2023-03-23T06:19:48;22.13;88.28
63899;HTU21D;50070;-32.946;-60.652;2023-03-23T06:22:17;22.17;87.41
63899;HTU21D;50070;-32.946;-60.652;2023-03-23T06:24:44;22.07;88.02
63899;HTU21D;50070;-32.946;-60.652;2023-03-23T06:27:10;22.14;88.14
63899;HTU21D;50070;-32.946;-60.652;2023-03-23T06:29:37;22.11;88.28
63899;HTU21D;50070;-32.946;-60.652;2023-03-23T06:32:05;22.12;88.08
63899;HTU21D;50070;-32.946;-60.652;2023-03-23T06:34:32;22.19;88.28
63899;HTU21D;50070;-32.946;-60.652;2023-03-23T06:36:58;22.03;88.75
63899;HTU21D;50070;-32.946;-60.652;2023-03-23T06:39:26;22.07;88.41
63899;HTU21D;50070;-32.946;-60.652;2023-03-23T06:41:53;22.08;88.50
63899;HTU21D;50070;-32.946;-60.652;2023-03-23T06:44:20;22.16;88.50
63899;HTU21D;50070;-32.946;-60.652;2023-03-23T06:46:47;22.14;88.03
63899;HTU21D;50070;-32.946;-60.652;2023-03-23T06:49:14;21.96;88.83
63899;HTU21D;50070;-32.946;-60.652;2023-03-23T06:51:41;21.97;89.17
63899;HTU21D;50070;-32.946;-60.652;2023-03-23T06:54:08;22.10;88.33
63899;HTU21D;50070;-32.946;-60.652;2023-03-23T06:56:35;22.09;88.33
63899;HTU21D;50070;-32.946;-60.652;2023-03-23T06:59:02;22.14;88.15
63899;HTU21D;50070;-32.946;-60.652;2023-03-23T07:01:29;21.89;89.69
63899;HTU21D;50070;-32.946;-60.652;2023-03-23T07:03:56;21.90;89.58
63899;HTU21D;50070;-32.946;-60.652;2023-03-23T07:06:24;22.22;88.08
63899;HTU21D;50070;-32.946;-60.652;2023-03-23T07:08:52;22.05;88.36
63899;HTU21D;50070;-32.946;-60.652;2023-03-23T07:11:19;21.97;89.21
63899;HTU21D;50070;-32.946;-60.652;2023-03-23T07:13:45;21.95;89.38
63899;HTU21D;50070;-32.946;-60.652;2023-03-23T07:16:12;22.05;89.13
63899;HTU21D;50070;-32.946;-60.652;2023-03-23T07:18:39;22.21;88.09
63899;HTU21D;50070;-32.946;-60.652;2023-03-23T07:21:06;22.06;88.70
63899;HTU21D;50070;-32.946;-60.652;2023-03-23T07:23:33;22.06;89.02
63899;HTU21D;50070;-32.946;-60.652;2023-03-23T07:26:00;22.06;88.36
63899;HTU21D;50070;-32.946;-60.652;2023-03-23T07:28:27;21.93;89.42
63899;HTU21D;50070;-32.946;-60.652;2023-03-23T07:30:54;22.21;88.14
63899;HTU21D;50070;-32.946;-60.652;2023-03-23T07:33:21;22.27;87.64
63899;HTU21D;50070;-32.946;-60.652;2023-03-23T07:35:48;22.12;88.53
63899;HTU21D;50070;-32.946;-60.652;2023-03-23T07:38:15;22.34;87.50
63899;HTU21D;50070;-32.946;-60.652;2023-03-23T07:40:42;22.35;87.07
63899;HTU21D;50070;-32.946;-60.652;2023-03-23T07:43:09;22.24;87.41
63899;HTU21D;50070;-32.946;-60.652;2023-03-23T07:45:35;21.97;88.77
63899;HTU21D;50070;-32.946;-60.652;2023-03-23T07:48:03;22.03;88.70
63899;HTU21D;50070;-32.946;-60.652;2023-03-23T07:50:29;22.10;88.34
63899;HTU21D;50070;-32.946;-60.652;2023-03-23T07:52:58;22.06;89.09
63899;HTU21D;50070;-32.946;-60.652;2023-03-23T07:55:26;22.11;88.93
63899;HTU21D;50070;-32.946;-60.652;2023-03-23T07:57:55;22.03;89.30
63899;HTU21D;50070;-32.946;-60.652;2023-03-23T08:00:23;21.91;89.84
63899;HTU21D;50070;-32.946;-60.652;2023-03-23T08:02:55;21.82;90.43
63899;HTU21D;50070;-32.946;-60.652;2023-03-23T08:05:22;21.63;91.68
63899;HTU21D;50070;-32.946;-60.652;2023-03-23T08:07:53;21.67;91.34
63899;HTU21D;50070;-32.946;-60.652;2023-03-23T08:10:23;21.93;90.12
63899;HTU21D;50070;-32.946;-60.652;2023-03-23T08:12:55;22.03;88.82
63899;HTU21D;50070;-32.946;-60.652;2023-03-23T08:15:22;21.94;89.20
63899;HTU21D;50070;-32.946;-60.652;2023-03-23T08:17:50;21.90;89.80
63899;HTU21D;50070;-32.946;-60.652;2023-03-23T08:20:17;21.98;89.56
63899;HTU21D;50070;-32.946;-60.652;2023-03-23T08:22:50;22.09;88.60
63899;HTU21D;50070;-32.946;-60.652;2023-03-23T08:25:19;22.11;88.31
63899;HTU21D;50070;-32.946;-60.652;2023-03-23T08:27:46;22.21;87.71
63899;HTU21D;50070;-32.946;-60.652;2023-03-23T08:30:16;22.16;87.67
63899;HTU21D;50070;-32.946;-60.652;2023-03-23T08:32:43;22.09;88.36
63899;HTU21D;50070;-32.946;-60.652;2023-03-23T08:35:12;22.09;88.25
63899;HTU21D;50070;-32.946;-60.652;2023-03-23T08:37:40;22.11;88.52
63899;HTU21D;50070;-32.946;-60.652;2023-03-23T08:40:09;22.06;88.52
63899;HTU21D;50070;-32.946;-60.652;2023-03-23T08:42:38;21.87;89.77
63899;HTU21D;50070;-32.946;-60.652;2023-03-23T08:45:07;21.82;90.23
63899;HTU21D;50070;-32.946;-60.652;2023-03-23T08:47:35;21.85;90.26
63899;HTU21D;50070;-32.946;-60.652;2023-03-23T08:50:06;21.94;89.95
63899;HTU21D;50070;-32.946;-60.652;2023-03-23T08:52:34;22.07;89.15
63899;HTU21D;50070;-32.946;-60.652;2023-03-23T08:55:01;21.94;90.08
63899;HTU21D;50070;-32.946;-60.652;2023-03-23T08:57:29;21.87;90.48
63899;HTU21D;50070;-32.946;-60.652;2023-03-23T08:59:56;21.99;89.81
63899;HTU21D;50070;-32.946;-60.652;2023-03-23T09:02:26;21.91;90.37
63899;HTU21D;50070;-32.946;-60.652;2023-03-23T09:04:53;21.98;90.08
63899;HTU21D;50070;-32.946;-60.652;2023-03-23T09:07:20;21.84;90.45
63899;HTU21D;50070;-32.946;-60.652;2023-03-23T09:09:47;21.82;90.97
63899;HTU21D;50070;-32.946;-60.652;2023-03-23T09:12:14;21.92;90.58
63899;HTU21D;50070;-32.946;-60.652;2023-03-23T09:14:41;21.81;91.09
63899;HTU21D;50070;-32.946;-60.652;2023-03-23T09:17:08;21.88;91.57
63899;HTU21D;50070;-32.946;-60.652;2023-03-23T09:19:34;21.80;91.08
63899;HTU21D;50070;-32.946;-60.652;2023-03-23T09:22:02;21.74;91.41
63899;HTU21D;50070;-32.946;-60.652;2023-03-23T09:24:30;21.69;91.85
63899;HTU21D;50070;-32.946;-60.652;2023-03-23T09:26:57;21.54;92.39
63899;HTU21D;50070;-32.946;-60.652;2023-03-23T09:29:25;21.70;91.72
63899;HTU21D;50070;-32.946;-60.652;2023-03-23T09:31:54;21.78;91.34
63899;HTU21D;50070;-32.946;-60.652;2023-03-23T09:34:22;21.67;92.09
63899;HTU21D;50070;-32.946;-60.652;2023-03-23T09:36:49;21.55;92.46
63899;HTU21D;50070;-32.946;-60.652;2023-03-23T09:39:16;21.69;91.92
63899;HTU21D;50070;-32.946;-60.652;2023-03-23T09:41:57;21.57;92.63
63899;HTU21D;50070;-32.946;-60.652;2023-03-23T09:44:46;21.66;92.01
63899;HTU21D;50070;-32.946;-60.652;2023-03-23T09:50:16;21.53;92.66
63899;HTU21D;50070;-32.946;-60.652;2023-03-23T09:52:52;21.52;92.76
63899;HTU21D;50070;-32.946;-60.652;2023-03-23T09:55:22;21.64;92.03
63899;HTU21D;50070;-32.946;-60.652;2023-03-23T09:57:59;21.63;92.28
63899;HTU21D;50070;-32.946;-60.652;2023-03-23T10:03:20;21.57;92.34
63899;HTU21D;50070;-32.946;-60.652;2023-03-23T10:05:54;21.87;90.93
63899;HTU21D;50070;-32.946;-60.652;2023-03-23T10:08:26;21.76;91.41
63899;HTU21D;50070;-32.946;-60.652;2023-03-23T10:11:24;21.66;91.95
63899;HTU21D;50070;-32.946;-60.652;2023-03-23T10:14:15;21.61;92.11
63899;HTU21D;50070;-32.946;-60.652;2023-03-23T10:16:57;21.78;91.44
63899;HTU21D;50070;-32.946;-60.652;2023-03-23T10:21:56;22.09;89.99
63899;HTU21D;50070;-32.946;-60.652;2023-03-23T10:24:32;21.91;90.55
63899;HTU21D;50070;-32.946;-60.652;2023-03-23T10:27:20;22.04;90.28
63899;HTU21D;50070;-32.946;-60.652;2023-03-23T10:30:34;21.91;90.57
63899;HTU21D;50070;-32.946;-60.652;2023-03-23T10:35:52;21.85;90.72
63899;HTU21D;50070;-32.946;-60.652;2023-03-23T10:39:23;21.85;90.62
63899;HTU21D;50070;-32.946;-60.652;2023-03-23T10:41:30;21.88;90.05
63899;HTU21D;50070;-32.946;-60.652;2023-03-23T10:43:57;22.06;89.18
63899;HTU21D;50070;-32.946;-60.652;2023-03-23T10:46:40;22.19;88.59
63899;HTU21D;50070;-32.946;-60.652;2023-03-23T10:50:04;22.25;88.35
63899;HTU21D;50070;-32.946;-60.652;2023-03-23T10:52:24;22.05;89.07
63899;HTU21D;50070;-32.946;-60.652;2023-03-23T10:55:00;22.22;88.69
63899;HTU21D;50070;-32.946;-60.652;2023-03-23T10:57:30;22.49;87.15
63899;HTU21D;50070;-32.946;-60.652;2023-03-23T11:02:39;22.43;87.12
63899;HTU21D;50070;-32.946;-60.652;2023-03-23T11:05:20;22.39;87.15
63899;HTU21D;50070;-32.946;-60.652;2023-03-23T11:07:55;22.31;87.66
63899;HTU21D;50070;-32.946;-60.652;2023-03-23T11:12:50;22.37;87.87
63899;HTU21D;50070;-32.946;-60.652;2023-03-23T11:15:39;22.04;88.90
63899;HTU21D;50070;-32.946;-60.652;2023-03-23T11:18:59;22.16;88.55
63899;HTU21D;50070;-32.946;-60.652;2023-03-23T11:21:01;22.10;89.37
63899;HTU21D;50070;-32.946;-60.652;2023-03-23T11:23:35;22.17;89.01
63899;HTU21D;50070;-32.946;-60.652;2023-03-23T11:26:22;22.25;88.44
63899;HTU21D;50070;-32.946;-60.652;2023-03-23T11:28:59;22.37;87.67
63899;HTU21D;50070;-32.946;-60.652;2023-03-23T11:31:38;22.13;88.51
63899;HTU21D;50070;-32.946;-60.652;2023-03-23T11:34:22;22.20;89.06
63899;HTU21D;50070;-32.946;-60.652;2023-03-23T11:37:24;22.37;87.83
63899;HTU21D;50070;-32.946;-60.652;2023-03-23T11:39:55;22.12;88.94
63899;HTU21D;50070;-32.946;-60.652;2023-03-23T11:42:24;22.24;88.52
63899;HTU21D;50070;-32.946;-60.652;2023-03-23T11:45:30;22.23;88.54
63899;HTU21D;50070;-32.946;-60.652;2023-03-23T11:50:54;22.41;88.07
63899;HTU21D;50070;-32.946;-60.652;2023-03-23T11:53:43;22.43;87.66
63899;HTU21D;50070;-32.946;-60.652;2023-03-23T11:56:26;22.48;87.03
63899;HTU21D;50070;-32.946;-60.652;2023-03-23T11:58:55;22.71;86.03
63899;HTU21D;50070;-32.946;-60.652;2023-03-23T12:04:03;23.07;84.45
63899;HTU21D;50070;-32.946;-60.652;2023-03-23T12:09:04;23.08;84.12
63899;HTU21D;50070;-32.946;-60.652;2023-03-23T12:14:21;22.78;86.54
63899;HTU21D;50070;-32.946;-60.652;2023-03-23T12:17:16;23.00;85.86
63899;HTU21D;50070;-32.946;-60.652;2023-03-23T12:23:25;22.99;86.03
63899;HTU21D;50070;-32.946;-60.652;2023-03-23T12:26:59;23.10;85.58
63899;HTU21D;50070;-32.946;-60.652;2023-03-23T12:44:47;22.73;87.97
63899;HTU21D;50070;-32.946;-60.652;2023-03-23T12:47:27;22.88;87.24
63899;HTU21D;50070;-32.946;-60.652;2023-03-23T12:56:06;22.96;86.53
63899;HTU21D;50070;-32.946;-60.652;2023-03-23T12:58:32;22.84;86.66
63899;HTU21D;50070;-32.946;-60.652;2023-03-23T13:01:24;22.88;86.70
63899;HTU21D;50070;-32.946;-60.652;2023-03-23T13:04:14;22.73;87.47
63899;HTU21D;50070;-32.946;-60.652;2023-03-23T13:06:46;22.76;86.60
63899;HTU21D;50070;-32.946;-60.652;2023-03-23T13:11:41;22.83;85.97
63899;HTU21D;50070;-32.946;-60.652;2023-03-23T13:20:13;22.82;85.84
63899;HTU21D;50070;-32.946;-60.652;2023-03-23T13:22:50;22.76;86.72
63899;HTU21D;50070;-32.946;-60.652;2023-03-23T13:25:28;22.82;86.74
63899;HTU21D;50070;-32.946;-60.652;2023-03-23T13:28:01;22.83;85.67
63899;HTU21D;50070;-32.946;-60.652;2023-03-23T13:30:29;22.85;85.71
63899;HTU21D;50070;-32.946;-60.652;2023-03-23T13:33:04;22.69;87.06
63899;HTU21D;50070;-32.946;-60.652;2023-03-23T13:35:36;22.75;86.87
63899;HTU21D;50070;-32.946;-60.652;2023-03-23T13:40:45;22.62;87.26
63899;HTU21D;50070;-32.946;-60.652;2023-03-23T13:43:12;22.76;86.79
63899;HTU21D;50070;-32.946;-60.652;2023-03-23T13:45:47;22.78;85.96
63899;HTU21D;50070;-32.946;-60.652;2023-03-23T13:51:01;23.07;84.44
63899;HTU21D;50070;-32.946;-60.652;2023-03-23T13:53:47;22.98;85.13
63899;HTU21D;50070;-32.946;-60.652;2023-03-23T13:57:19;22.86;85.28
63899;HTU21D;50070;-32.946;-60.652;2023-03-23T14:00:10;22.87;85.69
63899;HTU21D;50070;-32.946;-60.652;2023-03-23T14:08:13;23.01;84.87
63899;HTU21D;50070;-32.946;-60.652;2023-03-23T14:10:43;22.98;85.36
63899;HTU21D;50070;-32.946;-60.652;2023-03-23T14:13:18;23.03;84.94
63899;HTU21D;50070;-32.946;-60.652;2023-03-23T14:16:01;23.00;85.06
63899;HTU21D;50070;-32.946;-60.652;2023-03-23T14:18:40;22.87;85.72
63899;HTU21D;50070;-32.946;-60.652;2023-03-23T14:21:15;23.03;84.45
63899;HTU21D;50070;-32.946;-60.652;2023-03-23T14:23:42;23.06;84.43
63899;HTU21D;50070;-32.946;-60.652;2023-03-23T14:26:12;23.15;83.63
63899;HTU21D;50070;-32.946;-60.652;2023-03-23T14:28:44;23.09;83.75
63899;HTU21D;50070;-32.946;-60.652;2023-03-23T14:31:23;23.42;82.85
63899;HTU21D;50070;-32.946;-60.652;2023-03-23T14:33:51;23.46;82.89
63899;HTU21D;50070;-32.946;-60.652;2023-03-23T14:36:29;23.74;81.65
63899;HTU21D;50070;-32.946;-60.652;2023-03-23T14:39:43;24.24;78.68
63899;HTU21D;50070;-32.946;-60.652;2023-03-23T14:41:43;24.27;78.51
63899;HTU21D;50070;-32.946;-60.652;2023-03-23T14:44:14;23.91;79.46
63899;HTU21D;50070;-32.946;-60.652;2023-03-23T14:46:43;24.02;79.62
63899;HTU21D;50070;-32.946;-60.652;2023-03-23T14:49:14;24.23;78.45
63899;HTU21D;50070;-32.946;-60.652;2023-03-23T14:51:54;24.90;75.97
63899;HTU21D;50070;-32.946;-60.652;2023-03-23T14:54:28;24.70;76.39
63899;HTU21D;50070;-32.946;-60.652;2023-03-23T14:57:10;24.72;76.33
63899;HTU21D;50070;-32.946;-60.652;2023-03-23T14:59:40;24.87;76.34
63899;HTU21D;50070;-32.946;-60.652;2023-03-23T15:02:15;24.20;78.01
63899;HTU21D;50070;-32.946;-60.652;2023-03-23T15:04:45;24.30;78.36
63899;HTU21D;50070;-32.946;-60.652;2023-03-23T15:07:13;24.78;76.57
63899;HTU21D;50070;-32.946;-60.652;2023-03-23T15:09:44;24.85;76.54
63899;HTU21D;50070;-32.946;-60.652;2023-03-23T15:12:25;24.91;75.80
63899;HTU21D;50070;-32.946;-60.652;2023-03-23T15:15:04;24.65;76.31
63899;HTU21D;50070;-32.946;-60.652;2023-03-23T15:17:35;24.62;76.70
63899;HTU21D;50070;-32.946;-60.652;2023-03-23T15:20:30;24.74;76.42
63899;HTU21D;50070;-32.946;-60.652;2023-03-23T15:23:06;24.80;75.82
63899;HTU21D;50070;-32.946;-60.652;2023-03-23T15:25:38;24.98;75.15
63899;HTU21D;50070;-32.946;-60.652;2023-03-23T15:28:20;24.97;75.57
63899;HTU21D;50070;-32.946;-60.652;2023-03-23T15:30:55;24.98;75.42
63899;HTU21D;50070;-32.946;-60.652;2023-03-23T15:33:24;24.97;74.95
63899;HTU21D;50070;-32.946;-60.652;2023-03-23T15:35:56;25.27;73.91
63899;HTU21D;50070;-32.946;-60.652;2023-03-23T15:38:31;25.51;72.83
63899;HTU21D;50070;-32.946;-60.652;2023-03-23T15:41:04;25.43;72.91
63899;HTU21D;50070;-32.946;-60.652;2023-03-23T15:43:34;25.15;73.07
63899;HTU21D;50070;-32.946;-60.652;2023-03-23T15:46:20;25.28;73.27
63899;HTU21D;50070;-32.946;-60.652;2023-03-23T15:51:29;25.65;71.69
63899;HTU21D;50070;-32.946;-60.652;2023-03-23T15:53:57;25.76;71.51
63899;HTU21D;50070;-32.946;-60.652;2023-03-23T15:56:24;25.29;73.13
63899;HTU21D;50070;-32.946;-60.652;2023-03-23T15:58:52;25.42;72.80
63899;HTU21D;50070;-32.946;-60.652;2023-03-23T16:01:24;25.52;72.38
63899;HTU21D;50070;-32.946;-60.652;2023-03-23T16:06:33;25.52;72.03
63899;HTU21D;50070;-32.946;-60.652;2023-03-23T16:09:02;25.52;72.32
63899;HTU21D;50070;-32.946;-60.652;2023-03-23T16:11:30;25.76;71.11
63899;HTU21D;50070;-32.946;-60.652;2023-03-23T16:13:56;25.73;71.52
63899;HTU21D;50070;-32.946;-60.652;2023-03-23T16:16:36;25.30;72.99
63899;HTU21D;50070;-32.946;-60.652;2023-03-23T16:19:04;25.08;73.71
63899;HTU21D;50070;-32.946;-60.652;2023-03-23T16:21:31;25.47;72.19
63899;HTU21D;50070;-32.946;-60.652;2023-03-23T16:23:58;25.78;71.53
63899;HTU21D;50070;-32.946;-60.652;2023-03-23T16:26:25;25.93;71.31
63899;HTU21D;50070;-32.946;-60.652;2023-03-23T16:28:52;25.74;71.51
63899;HTU21D;50070;-32.946;-60.652;2023-03-23T16:31:19;25.48;72.78
63899;HTU21D;50070;-32.946;-60.652;2023-03-23T16:33:45;25.84;71.72
63899;HTU21D;50070;-32.946;-60.652;2023-03-23T16:36:13;25.90;72.08
63899;HTU21D;50070;-32.946;-60.652;2023-03-23T16:38:40;25.74;72.77
63899;HTU21D;50070;-32.946;-60.652;2023-03-23T16:41:08;25.69;71.75
63899;HTU21D;50070;-32.946;-60.652;2023-03-23T16:43:35;25.66;71.87
63899;HTU21D;50070;-32.946;-60.652;2023-03-23T16:46:01;25.80;71.28
63899;HTU21D;50070;-32.946;-60.652;2023-03-23T16:48:28;25.84;71.92